Torrington, CT (06790)

1:28 PM EDT on September 02, 2015 (GMT -0400)
Crestwood | | Change Station
CLOSE
Current Station
Personal Weather Station
Location: Torrington, CT
Elevation: 843 ft
Nearby Weather Stations

Elev 843 ft 41.81 °N, 73.10 °W | Updated 6 seconds ago

Clear
Clear
84.1 °F
Feels Like 87 °F
N
0.0
Wind Variable Wind from NW
Gusts 0.0 mph

Today
High -- | Low -- °F
--% Chance of Precip.
Yesterday
High -- | Low -- °F
Precip. -- in
6:19 AM 7:24 PM
Waning Gibbous, 78% visible
Pressure 30.02 in
Visibility 6.0 miles
Clouds Scattered Clouds 4200 ft
Heat Index 87 °F
Dew Point 67 °F
Humidity 57%
Rainfall 0.00 in
Snow Depth Not available.
UV 8 out of 12
Pollen 9.40 out of 12
Air Quality Not available.
Flu Activity Not available.
METAR KOXC 021650Z VRB04KT 6SM HZ SCT042 29/18 A3002
Pressure 30.02 in
Visibility 6.0 miles
Clouds Scattered Clouds 4200 ft
Heat Index 87 °F
Dew Point 67 °F
Humidity 57%
Rainfall 0.00 in
Snow Depth Not available.
UV 8 out of 12
Pollen 9.40 out of 12
Air Quality Not available.
Flu Activity Not available.
METAR KOXC 021650Z VRB04KT 6SM HZ SCT042 29/18 A3002

10-Day Weather Forecast

×

Almanac

Astronomy

Sep. 02, 2015 Rise Set
Actual Time
Civil Twilight
Nautical Twilight
Astronomical Twilight
Moon
Length of Visible Light
Length of Day
Tomorrow will be .
, % of the Moon is Illuminated

Today's Extremes

State Highs State Lows

Community

WunderPhotos

Upload Photos

1,851,785 photos uploaded!

WunderBlogs® & News

Nearby

Air Quality

  Air Quality AQ Index Pollutant
Not available.

Snow Depth

Station Depth Elevation

Earthquake Activity

City Distance Mag. Time & Date
Minimum magnitude displayed is 2.5.

Coastal Water Temperatures

Place Temperature

Stations

Nearby Weather Stations

Station Location Temp. Windchill Dew Point Humidity Wind Precip. Elev Updated Type